createdAt,value
2023-01-20T00:01:11.246Z,28.90
2023-01-20T00:03:41.925Z,28.75
2023-01-20T00:06:08.599Z,30.80
2023-01-20T00:08:34.713Z,31.17
2023-01-20T00:11:09.021Z,29.30
2023-01-20T00:13:35.933Z,34.00
2023-01-20T00:16:03.347Z,31.23
2023-01-20T00:18:29.355Z,30.20
2023-01-20T00:20:55.418Z,29.90
2023-01-20T00:23:21.486Z,29.33
2023-01-20T00:25:47.344Z,31.70
2023-01-20T00:28:13.217Z,33.42
2023-01-20T00:30:39.063Z,25.75
2023-01-20T00:33:05.014Z,28.00
2023-01-20T00:35:30.820Z,23.90
2023-01-20T00:37:56.588Z,28.02
2023-01-20T00:40:22.388Z,26.05
2023-01-20T00:42:48.221Z,27.33
2023-01-20T00:45:14.326Z,30.33
2023-01-20T00:47:40.195Z,24.00
2023-01-20T00:50:06.343Z,26.42
2023-01-20T00:52:32.254Z,30.80
2023-01-20T00:54:57.996Z,26.45
2023-01-20T00:57:23.836Z,29.58
2023-01-20T00:59:49.635Z,32.83
2023-01-20T01:02:15.479Z,27.35
2023-01-20T01:04:41.437Z,25.27
2023-01-20T01:07:07.200Z,30.77
2023-01-20T01:09:33.093Z,24.73
2023-01-20T01:11:58.900Z,27.20
2023-01-20T01:14:24.865Z,26.13
2023-01-20T01:16:50.793Z,26.73
2023-01-20T01:19:19.617Z,26.90
2023-01-20T01:21:45.474Z,28.30
2023-01-20T01:24:11.316Z,23.92
2023-01-20T01:26:37.103Z,31.85
2023-01-20T01:29:02.878Z,22.10
2023-01-20T01:31:28.770Z,29.65
2023-01-20T01:33:54.589Z,24.25
2023-01-20T01:36:20.384Z,23.95
2023-01-20T01:38:46.270Z,30.88
2023-01-20T01:41:25.274Z,32.08
2023-01-20T01:44:05.488Z,26.50
2023-01-20T01:46:31.836Z,27.05
2023-01-20T01:49:02.304Z,24.98
2023-01-20T01:51:34.706Z,28.15
2023-01-20T01:54:14.628Z,35.13
2023-01-20T01:56:42.771Z,24.70
2023-01-20T01:59:09.126Z,23.50
2023-01-20T02:01:37.785Z,24.73
2023-01-20T02:04:15.207Z,23.13
2023-01-20T02:06:45.037Z,29.60
2023-01-20T02:09:11.672Z,28.35
2023-01-20T02:11:43.126Z,30.13
2023-01-20T02:14:09.066Z,30.58
2023-01-20T02:17:07.665Z,26.40
2023-01-20T02:19:54.025Z,27.70
2023-01-20T02:22:39.043Z,23.15
2023-01-20T02:25:42.339Z,29.33
2023-01-20T02:28:53.217Z,26.65
2023-01-20T02:31:36.270Z,30.25
2023-01-20T02:34:16.993Z,22.23
2023-01-20T02:36:58.808Z,18.75
2023-01-20T02:40:00.201Z,21.58
2023-01-20T02:42:41.853Z,21.52
2023-01-20T02:45:31.501Z,22.40
2023-01-20T02:48:30.801Z,21.70
2023-01-20T02:51:09.515Z,22.40
2023-01-20T02:53:48.777Z,22.10
2023-01-20T02:56:16.123Z,21.45
2023-01-20T02:58:48.494Z,26.90
2023-01-20T03:01:24.769Z,21.52
2023-01-20T03:03:53.400Z,23.58
2023-01-20T03:06:23.741Z,29.63
2023-01-20T03:08:52.310Z,27.83
2023-01-20T03:11:18.853Z,26.42
2023-01-20T03:14:01.412Z,27.23
2023-01-20T03:16:28.348Z,29.92
2023-01-20T03:18:54.692Z,26.52
2023-01-20T03:21:21.033Z,24.42
2023-01-20T03:23:56.530Z,22.00
2023-01-20T03:26:23.253Z,24.15
2023-01-20T03:28:49.493Z,23.88
2023-01-20T03:31:21.216Z,24.17
2023-01-20T03:33:49.581Z,24.40
2023-01-20T03:36:16.305Z,17.98
2023-01-20T03:38:44.064Z,21.60
2023-01-20T03:41:40.216Z,22.42
2023-01-20T03:44:16.023Z,18.55
2023-01-20T03:47:08.815Z,26.17
2023-01-20T03:49:49.902Z,23.38
2023-01-20T03:52:47.509Z,20.83
2023-01-20T03:55:24.010Z,24.67
2023-01-20T03:57:58.075Z,24.35
2023-01-20T04:00:27.130Z,27.52
2023-01-20T04:02:58.694Z,24.42
2023-01-20T04:05:26.277Z,27.63
2023-01-20T04:07:56.768Z,22.52
2023-01-20T04:10:24.267Z,22.80
2023-01-20T04:12:50.199Z,25.42
2023-01-20T04:15:17.382Z,29.95
2023-01-20T04:17:44.652Z,25.27
2023-01-20T04:20:14.469Z,25.77
2023-01-20T04:23:00.538Z,30.90
2023-01-20T04:25:29.236Z,28.98
2023-01-20T04:27:55.042Z,32.38
2023-01-20T04:30:21.059Z,35.08
2023-01-20T04:32:46.867Z,27.20
2023-01-20T04:35:14.682Z,34.60
2023-01-20T04:37:41.299Z,34.67
2023-01-20T04:40:08.200Z,33.17
2023-01-20T04:42:34.082Z,39.55
2023-01-20T04:45:00.275Z,30.13
2023-01-20T04:47:29.703Z,35.25
2023-01-20T04:49:55.509Z,34.42
2023-01-20T04:52:21.377Z,36.95
2023-01-20T04:54:47.203Z,38.40
2023-01-20T04:57:13.058Z,34.60
2023-01-20T04:59:38.872Z,38.15
2023-01-20T05:02:04.772Z,37.58
2023-01-20T05:04:30.558Z,40.28
2023-01-20T05:06:56.374Z,41.22
2023-01-20T05:09:22.200Z,39.35
2023-01-20T05:11:48.010Z,44.92
2023-01-20T05:14:14.118Z,38.63
2023-01-20T05:16:39.957Z,34.03
2023-01-20T05:19:05.848Z,38.42
2023-01-20T05:21:32.396Z,38.03
2023-01-20T05:23:58.571Z,34.50
2023-01-20T05:26:25.463Z,38.80
2023-01-20T05:28:51.889Z,31.33
2023-01-20T05:31:17.927Z,29.40
2023-01-20T05:33:43.761Z,29.73
2023-01-20T05:36:10.917Z,31.88
2023-01-20T05:38:36.843Z,41.30
2023-01-20T05:41:08.012Z,35.28
2023-01-20T05:43:34.112Z,35.63
2023-01-20T05:46:00.102Z,31.48
2023-01-20T05:48:26.092Z,34.65
2023-01-20T05:50:51.903Z,31.02
2023-01-20T05:53:18.675Z,33.60
2023-01-20T05:55:44.849Z,37.45
2023-01-20T05:58:11.614Z,38.50
2023-01-20T06:00:37.792Z,39.70
2023-01-20T06:03:04.004Z,37.78
2023-01-20T06:05:29.905Z,34.17
2023-01-20T06:07:56.542Z,35.55
2023-01-20T06:10:27.384Z,40.22
2023-01-20T06:12:54.560Z,44.85
2023-01-20T06:15:24.628Z,38.47
2023-01-20T06:17:53.984Z,38.65
2023-01-20T06:20:19.888Z,35.15
2023-01-20T06:22:46.015Z,38.03
2023-01-20T06:25:11.861Z,42.72
2023-01-20T06:27:37.657Z,32.67
2023-01-20T06:30:05.525Z,35.28
2023-01-20T06:32:31.339Z,40.60
2023-01-20T06:34:57.126Z,39.05
2023-01-20T06:37:22.900Z,39.50
2023-01-20T06:39:48.687Z,35.28
2023-01-20T06:42:14.598Z,34.83
2023-01-20T06:44:40.379Z,35.33
2023-01-20T06:47:06.189Z,36.92
2023-01-20T06:49:32.864Z,39.05
2023-01-20T06:51:59.341Z,35.55
2023-01-20T06:54:26.443Z,34.33
2023-01-20T06:56:52.383Z,33.67
2023-01-20T06:59:18.242Z,33.63
2023-01-20T07:01:44.546Z,38.63
2023-01-20T07:04:14.211Z,33.33
2023-01-20T07:06:41.451Z,32.25
2023-01-20T07:09:10.088Z,37.15
2023-01-20T07:11:36.447Z,34.90
2023-01-20T07:14:05.968Z,32.58
2023-01-20T07:16:32.717Z,33.35
2023-01-20T07:18:58.584Z,33.90
2023-01-20T07:21:26.552Z,32.63
2023-01-20T07:23:52.995Z,37.85
2023-01-20T07:26:22.052Z,42.42
2023-01-20T07:28:48.464Z,36.45
2023-01-20T07:31:21.618Z,35.88
2023-01-20T07:33:48.217Z,38.22
2023-01-20T07:36:14.939Z,34.55
2023-01-20T07:38:41.164Z,33.83
2023-01-20T07:41:14.929Z,34.67
2023-01-20T07:43:42.196Z,37.63
2023-01-20T07:46:08.270Z,40.10
2023-01-20T07:48:34.390Z,35.95
2023-01-20T07:51:04.560Z,41.03
2023-01-20T07:53:32.308Z,37.83
2023-01-20T07:56:03.561Z,33.47
2023-01-20T07:58:29.387Z,43.00
2023-01-20T08:00:55.353Z,39.53
2023-01-20T08:03:22.210Z,32.13
2023-01-20T08:05:48.014Z,36.05
2023-01-20T08:08:13.849Z,34.40
2023-01-20T08:10:39.742Z,34.90
2023-01-20T08:13:05.549Z,36.25
2023-01-20T08:15:31.862Z,28.77
2023-01-20T08:18:00.793Z,30.00
2023-01-20T08:20:26.743Z,31.02
2023-01-20T08:22:52.607Z,31.95
2023-01-20T08:25:18.716Z,30.70
2023-01-20T08:27:47.388Z,29.40
2023-01-20T08:30:13.355Z,29.95
2023-01-20T08:32:40.288Z,25.23
2023-01-20T08:35:06.273Z,31.45
2023-01-20T08:37:34.716Z,26.48
2023-01-20T08:40:00.552Z,26.90
2023-01-20T08:42:26.468Z,28.15
2023-01-20T08:44:52.839Z,24.70
2023-01-20T08:47:18.643Z,27.42
2023-01-20T08:49:44.556Z,23.38
2023-01-20T08:52:12.222Z,17.95
2023-01-20T08:54:38.142Z,20.25
2023-01-20T08:57:03.983Z,18.92
2023-01-20T08:59:29.841Z,22.88
2023-01-20T09:01:55.650Z,21.50
2023-01-20T09:04:21.476Z,18.52
2023-01-20T09:06:49.617Z,16.90
2023-01-20T09:09:17.728Z,16.50
2023-01-20T09:11:49.707Z,18.65
2023-01-20T09:14:24.777Z,14.60
2023-01-20T09:16:50.836Z,16.50
2023-01-20T09:19:17.270Z,13.98
2023-01-20T09:21:43.669Z,18.00
2023-01-20T09:24:10.049Z,16.20
2023-01-20T09:26:40.887Z,17.73
2023-01-20T09:29:13.608Z,16.05
2023-01-20T09:31:52.827Z,15.85
2023-01-20T09:34:23.735Z,12.77
2023-01-20T09:36:54.462Z,21.23
2023-01-20T09:39:39.691Z,14.90
2023-01-20T09:42:35.877Z,17.55
2023-01-20T09:45:25.506Z,14.52
2023-01-20T09:48:03.007Z,14.27
2023-01-20T09:51:11.495Z,15.18
2023-01-20T09:54:09.088Z,15.05
2023-01-20T09:56:40.546Z,17.35
2023-01-20T09:59:12.619Z,14.63
2023-01-20T10:01:47.085Z,20.02
2023-01-20T10:04:32.138Z,15.90
2023-01-20T10:07:23.452Z,14.68
2023-01-20T10:10:04.954Z,15.23
2023-01-20T10:12:37.049Z,16.65
2023-01-20T10:15:24.589Z,16.75
2023-01-20T10:17:52.336Z,12.07
2023-01-20T10:20:28.067Z,13.40
2023-01-20T10:22:56.838Z,12.40
2023-01-20T10:25:43.519Z,13.68
2023-01-20T10:28:21.923Z,11.85
2023-01-20T10:30:47.834Z,13.10
2023-01-20T10:33:15.476Z,13.82
2023-01-20T10:35:46.285Z,10.35
2023-01-20T10:38:37.856Z,12.98
2023-01-20T10:41:24.154Z,11.43
2023-01-20T10:43:50.024Z,9.63
2023-01-20T10:46:15.863Z,7.03
2023-01-20T10:48:49.334Z,7.00
2023-01-20T10:51:50.197Z,8.93
2023-01-20T10:54:35.913Z,8.18
2023-01-20T10:57:04.132Z,6.38
2023-01-20T10:59:45.171Z,8.27
2023-01-20T11:02:17.190Z,8.85
2023-01-20T11:04:45.096Z,8.23
2023-01-20T11:07:18.334Z,7.75
2023-01-20T11:09:46.733Z,9.65
2023-01-20T11:12:16.822Z,8.32
2023-01-20T11:14:44.455Z,10.40
2023-01-20T11:17:19.703Z,12.00
2023-01-20T11:19:50.440Z,10.07
2023-01-20T11:22:22.452Z,8.25
2023-01-20T11:24:54.278Z,11.40
2023-01-20T11:27:23.813Z,11.32
2023-01-20T11:29:55.680Z,10.40
2023-01-20T11:32:30.805Z,13.95
2023-01-20T11:34:57.291Z,13.75
2023-01-20T11:37:26.248Z,10.93
2023-01-20T11:39:54.850Z,11.07
2023-01-20T11:42:23.221Z,12.45
2023-01-20T11:44:54.463Z,11.45
2023-01-20T11:47:24.632Z,9.20
2023-01-20T11:50:24.592Z,9.95
2023-01-20T11:52:50.519Z,15.13
2023-01-20T11:55:20.727Z,12.20
2023-01-20T11:57:52.293Z,12.88
2023-01-20T12:00:18.101Z,12.88
2023-01-20T12:02:55.701Z,13.75
2023-01-20T12:05:41.171Z,12.38
2023-01-20T12:08:18.241Z,13.20
2023-01-20T12:10:45.371Z,11.18
2023-01-20T12:14:16.372Z,13.60
2023-01-20T12:16:44.655Z,13.60
2023-01-20T12:19:17.421Z,12.73
2023-01-20T12:21:48.422Z,12.57
2023-01-20T12:25:09.506Z,12.05
2023-01-20T12:27:57.069Z,14.02
2023-01-20T12:30:46.965Z,13.93
2023-01-20T12:33:25.114Z,13.23
2023-01-20T12:35:53.700Z,14.07
2023-01-20T12:38:23.782Z,11.48
2023-01-20T12:40:54.652Z,11.40
2023-01-20T12:43:26.286Z,9.80
2023-01-20T12:46:13.888Z,10.00
2023-01-20T12:48:45.652Z,10.23
2023-01-20T12:51:34.824Z,10.88
2023-01-20T12:54:15.464Z,9.70
2023-01-20T12:56:59.708Z,11.10
2023-01-20T12:59:40.432Z,9.57
2023-01-20T13:02:11.970Z,9.40
2023-01-20T13:04:58.872Z,9.40
2023-01-20T13:07:47.970Z,11.43
2023-01-20T13:10:38.481Z,10.02
2023-01-20T13:13:17.140Z,8.93
2023-01-20T13:16:12.904Z,8.27
2023-01-20T13:19:06.762Z,10.88
2023-01-20T13:21:34.270Z,16.13
2023-01-20T13:24:02.239Z,11.23
2023-01-20T13:26:32.309Z,15.15
2023-01-20T13:28:59.811Z,13.65
2023-01-20T13:31:43.278Z,14.32
2023-01-20T13:34:21.333Z,14.20
2023-01-20T13:37:06.653Z,13.57
2023-01-20T13:39:45.162Z,14.00
2023-01-20T13:42:35.583Z,14.68
2023-01-20T13:45:13.763Z,12.82
2023-01-20T13:47:53.424Z,14.68
2023-01-20T13:50:35.887Z,13.73
2023-01-20T13:53:01.692Z,12.18
2023-01-20T13:55:40.748Z,15.15
2023-01-20T13:58:13.482Z,14.93
2023-01-20T14:00:39.378Z,16.00
2023-01-20T14:03:27.412Z,12.95
2023-01-20T14:05:56.413Z,12.35
2023-01-20T14:08:23.937Z,11.85
2023-01-20T14:10:49.881Z,14.45
2023-01-20T14:13:23.822Z,13.35
2023-01-20T14:15:54.907Z,18.70
2023-01-20T14:18:24.371Z,17.15
2023-01-20T14:21:18.658Z,12.30
2023-01-20T14:23:47.643Z,12.00
2023-01-20T14:26:21.132Z,12.55
2023-01-20T14:28:57.715Z,13.50
2023-01-20T14:31:34.511Z,11.10
2023-01-20T14:34:17.773Z,14.68
2023-01-20T14:36:44.195Z,15.00
2023-01-20T14:39:18.497Z,15.02
2023-01-20T14:41:47.629Z,14.68
2023-01-20T14:44:22.357Z,15.45
2023-01-20T14:46:53.327Z,14.87
2023-01-20T14:49:21.499Z,16.55
2023-01-20T14:51:49.911Z,15.10
2023-01-20T14:54:45.045Z,13.95
2023-01-20T14:57:33.443Z,14.40
2023-01-20T15:00:14.840Z,18.70
2023-01-20T15:02:57.945Z,16.85
2023-01-20T15:05:36.251Z,14.23
2023-01-20T15:08:11.340Z,19.42
2023-01-20T15:10:41.042Z,16.50
2023-01-20T15:13:26.976Z,14.82
2023-01-20T15:16:13.355Z,12.73
2023-01-20T15:18:39.575Z,15.85
2023-01-20T15:21:27.008Z,14.07
2023-01-20T15:23:53.392Z,13.50
2023-01-20T15:26:30.120Z,13.88
2023-01-20T15:28:57.555Z,13.40
2023-01-20T15:31:23.935Z,16.70
2023-01-20T15:33:49.751Z,15.90
2023-01-20T15:36:36.337Z,13.45
2023-01-20T15:39:02.639Z,13.60
2023-01-20T15:41:28.553Z,14.52
2023-01-20T15:43:54.488Z,15.25
2023-01-20T15:46:20.422Z,13.00
2023-01-20T15:48:46.286Z,13.50
2023-01-20T15:51:15.307Z,10.55
2023-01-20T15:53:41.314Z,13.93
2023-01-20T15:56:34.565Z,14.23
2023-01-20T15:59:00.974Z,17.38
2023-01-20T16:01:28.499Z,20.58
2023-01-20T16:03:57.944Z,13.10
2023-01-20T16:06:30.272Z,13.35
2023-01-20T16:08:56.420Z,14.07
2023-01-20T16:11:22.313Z,10.30
2023-01-20T16:13:48.251Z,14.23
2023-01-20T16:16:18.539Z,15.85
2023-01-20T16:18:45.639Z,15.68
2023-01-20T16:21:13.372Z,14.93
2023-01-20T16:23:39.788Z,15.40
2023-01-20T16:26:24.572Z,16.58
2023-01-20T16:28:51.943Z,15.70
2023-01-20T16:31:18.597Z,19.27
2023-01-20T16:33:44.757Z,19.35
2023-01-20T16:36:16.441Z,19.02
2023-01-20T16:38:43.122Z,16.08
2023-01-20T16:41:23.442Z,18.45
2023-01-20T16:43:50.761Z,19.08
2023-01-20T16:46:22.506Z,19.33
2023-01-20T16:48:48.527Z,20.13
2023-01-20T16:51:17.190Z,21.00
2023-01-20T16:53:43.324Z,18.13
2023-01-20T16:56:25.585Z,19.60
2023-01-20T16:58:53.233Z,17.80
2023-01-20T17:01:22.896Z,20.25
2023-01-20T17:03:50.672Z,18.67
2023-01-20T17:06:19.912Z,16.75
2023-01-20T17:08:48.008Z,17.52
2023-01-20T17:11:22.450Z,14.82
2023-01-20T17:13:48.769Z,20.10
2023-01-20T17:16:15.145Z,15.63
2023-01-20T17:18:44.459Z,17.10
2023-01-20T17:21:11.611Z,18.70
2023-01-20T17:23:37.619Z,15.30
2023-01-20T17:26:05.221Z,20.05
2023-01-20T17:28:31.387Z,15.13
2023-01-20T17:31:05.541Z,17.23
2023-01-20T17:33:31.803Z,17.55
2023-01-20T17:36:00.184Z,15.95
2023-01-20T17:38:28.000Z,16.05
2023-01-20T17:40:54.410Z,15.07
2023-01-20T17:43:20.690Z,16.42
2023-01-20T17:45:46.559Z,19.55
2023-01-20T17:48:12.345Z,17.67
2023-01-20T17:50:38.374Z,16.73
2023-01-20T17:53:04.278Z,18.38
2023-01-20T17:55:30.102Z,15.35
2023-01-20T17:57:56.114Z,17.70
2023-01-20T18:00:22.083Z,17.55
2023-01-20T18:02:47.932Z,18.10
2023-01-20T18:05:13.865Z,20.52
2023-01-20T18:07:39.765Z,16.42
2023-01-20T18:10:05.714Z,16.65
2023-01-20T18:12:31.573Z,15.77
2023-01-20T18:14:57.996Z,17.63
2023-01-20T18:17:24.429Z,19.92
2023-01-20T18:19:50.336Z,15.82
2023-01-20T18:22:16.956Z,20.17
2023-01-20T18:24:43.111Z,17.63
2023-01-20T18:27:09.122Z,19.17
2023-01-20T18:29:35.452Z,21.60
2023-01-20T18:32:02.063Z,16.58
2023-01-20T18:34:27.926Z,21.83
2023-01-20T18:36:54.694Z,22.50
2023-01-20T18:39:22.945Z,20.83
2023-01-20T18:41:50.132Z,20.27
2023-01-20T18:44:16.504Z,14.98
2023-01-20T18:46:42.464Z,19.92
2023-01-20T18:49:12.121Z,16.33
2023-01-20T18:51:38.001Z,18.08
2023-01-20T18:54:06.951Z,18.42
2023-01-20T18:56:33.699Z,15.57
2023-01-20T18:59:01.567Z,16.30
2023-01-20T19:01:32.962Z,14.80
2023-01-20T19:04:03.589Z,18.27
2023-01-20T19:06:33.602Z,15.88
2023-01-20T19:09:00.018Z,19.58
2023-01-20T19:11:31.697Z,18.83
2023-01-20T19:13:58.736Z,19.02
2023-01-20T19:16:27.301Z,18.73
2023-01-20T19:18:55.946Z,21.17
2023-01-20T19:21:24.172Z,25.92
2023-01-20T19:23:52.134Z,18.80
2023-01-20T19:26:19.000Z,21.52
2023-01-20T19:29:01.842Z,21.05
2023-01-20T19:31:30.168Z,21.17
2023-01-20T19:33:56.464Z,18.48
2023-01-20T19:36:23.211Z,19.55
2023-01-20T19:38:51.325Z,18.20
2023-01-20T19:41:26.999Z,18.60
2023-01-20T19:43:56.885Z,19.88
2023-01-20T19:46:25.424Z,19.05
2023-01-20T19:48:53.437Z,27.08
2023-01-20T19:51:20.035Z,22.45
2023-01-20T19:53:46.675Z,21.58
2023-01-20T19:56:14.978Z,19.73
2023-01-20T19:58:42.031Z,20.45
2023-01-20T20:01:17.468Z,19.58
2023-01-20T20:03:44.222Z,21.38
2023-01-20T20:06:28.297Z,19.58
2023-01-20T20:09:06.089Z,18.60
2023-01-20T20:11:33.067Z,24.85
2023-01-20T20:14:01.790Z,24.17
2023-01-20T20:16:30.547Z,20.50
2023-01-20T20:18:57.456Z,21.65
2023-01-20T20:21:24.756Z,20.02
2023-01-20T20:23:53.037Z,21.25
2023-01-20T20:26:20.569Z,19.27
2023-01-20T20:28:46.931Z,23.02
2023-01-20T20:31:13.428Z,23.95
2023-01-20T20:33:39.591Z,19.38
2023-01-20T20:36:07.116Z,18.65
2023-01-20T20:38:36.298Z,16.92
2023-01-20T20:41:07.498Z,19.52
2023-01-20T20:43:34.857Z,21.55
2023-01-20T20:46:02.541Z,20.05
2023-01-20T20:48:29.447Z,21.15
2023-01-20T20:50:55.782Z,21.83
2023-01-20T20:53:22.116Z,20.65
2023-01-20T20:55:48.457Z,23.67
2023-01-20T20:58:14.671Z,20.38
2023-01-20T21:00:40.773Z,18.77
2023-01-20T21:03:07.087Z,22.63
2023-01-20T21:05:33.866Z,18.90
2023-01-20T21:08:00.369Z,19.48
2023-01-20T21:10:26.710Z,19.92
2023-01-20T21:12:52.781Z,19.17
2023-01-20T21:15:19.120Z,24.02
2023-01-20T21:17:45.201Z,19.80
2023-01-20T21:20:11.717Z,22.40
2023-01-20T21:22:38.343Z,21.02
2023-01-20T21:25:05.538Z,24.65
2023-01-20T21:27:32.501Z,18.27
2023-01-20T21:29:58.370Z,18.30
2023-01-20T21:32:24.475Z,17.83
2023-01-20T21:34:50.308Z,17.73
2023-01-20T21:37:18.313Z,18.52
2023-01-20T21:39:44.266Z,20.92
2023-01-20T21:42:10.176Z,19.58
2023-01-20T21:44:36.015Z,19.42
2023-01-20T21:47:04.139Z,19.67
2023-01-20T21:49:48.705Z,17.85
2023-01-20T21:52:35.523Z,17.90
2023-01-20T21:55:02.389Z,16.92
2023-01-20T21:57:28.562Z,17.25
2023-01-20T21:59:55.267Z,21.98
2023-01-20T22:02:27.324Z,19.75
2023-01-20T22:04:53.406Z,22.10
2023-01-20T22:07:19.629Z,16.55
2023-01-20T22:09:45.512Z,23.65
2023-01-20T22:12:12.099Z,19.35
2023-01-20T22:14:38.449Z,19.77
2023-01-20T22:17:05.872Z,18.17
2023-01-20T22:19:31.786Z,21.45
2023-01-20T22:21:59.375Z,20.75
2023-01-20T22:24:25.697Z,20.40
2023-01-20T22:26:51.706Z,18.25
2023-01-20T22:29:18.328Z,19.23
2023-01-20T22:31:45.117Z,18.52
2023-01-20T22:34:11.318Z,17.88
2023-01-20T22:36:37.669Z,20.30
2023-01-20T22:39:05.908Z,23.40
2023-01-20T22:41:31.875Z,20.40
2023-01-20T22:43:57.852Z,19.90
2023-01-20T22:46:25.651Z,17.05
2023-01-20T22:48:52.008Z,17.27
2023-01-20T22:51:21.333Z,20.75
2023-01-20T22:53:47.274Z,20.88
2023-01-20T22:56:15.870Z,18.05
2023-01-20T22:58:42.879Z,19.60
2023-01-20T23:01:19.429Z,20.95
2023-01-20T23:03:45.658Z,19.13
2023-01-20T23:06:13.340Z,19.70
2023-01-20T23:08:39.885Z,21.50
2023-01-20T23:11:13.888Z,16.17
2023-01-20T23:13:40.354Z,19.02
2023-01-20T23:16:10.245Z,17.05
2023-01-20T23:18:36.147Z,15.93
2023-01-20T23:21:02.077Z,18.73
2023-01-20T23:23:28.214Z,14.20
2023-01-20T23:26:06.008Z,20.20
2023-01-20T23:28:32.778Z,20.98
2023-01-20T23:31:03.643Z,20.65
2023-01-20T23:33:30.296Z,16.02
2023-01-20T23:36:05.854Z,16.48
2023-01-20T23:43:23.607Z,15.57
2023-01-20T23:45:49.499Z,17.20
2023-01-20T23:48:15.515Z,20.42
2023-01-20T23:50:41.329Z,20.13
2023-01-20T23:53:07.107Z,16.88
2023-01-20T23:55:32.946Z,14.77
2023-01-20T23:57:58.774Z,19.55
